Time;durP1;ratioP1;P1;durP2;ratioP2;P2;SDS_P1;SDS_P2;PMS_P1;PMS_P2;Temp;Humidity;BMP_temperature;BMP_pressure;BME280_temperature;BME280_humidity;BME280_pressure;Samples;Min_cycle;Max_cycle;Signal;HPM_P1;HPM_P2
2023/08/06 00:05:44;;;;;;;8;5.1;;;;;;;20.03;91.57;;;;;
2023/08/06 00:16:44;;;;;;;8.4;5.6;;;;;;;20.21;91.25;;;;;
2023/08/06 00:26:44;;;;;;;8.4;5.6;;;;;;;19.97;92.35;;;;;
2023/08/06 00:36:44;;;;;;;8.4;5.6;;;;;;;19.91;93.09;;;;;
2023/08/06 00:47:44;;;;;;;13.6;10.7;;;;;;;19.74;94.17;;;;;
2023/08/06 00:58:44;;;;;;;13.6;10.7;;;;;;;19.8;93.32;;;;;
2023/08/06 01:08:44;;;;;;;13.6;10.7;;;;;;;19.9;93.27;;;;;
2023/08/06 01:19:44;;;;;;;19.7;17.1;;;;;;;20.08;92.8;;;;;
2023/08/06 01:29:44;;;;;;;19.7;17.1;;;;;;;20.19;92.57;;;;;
2023/08/06 01:40:44;;;;;;;28.5;18.1;;;;;;;20.18;92.33;;;;;
2023/08/06 01:51:44;;;;;;;28.5;18.1;;;;;;;20.22;92.1;;;;;
2023/08/06 02:01:44;;;;;;;28.5;18.1;;;;;;;20.32;91.99;;;;;
2023/08/06 02:12:44;;;;;;;18.2;13.8;;;;;;;20.36;91.43;;;;;
2023/08/06 02:23:44;;;;;;;18.2;13.8;;;;;;;20.46;90.94;;;;;
2023/08/06 02:34:44;;;;;;;18.2;13.8;;;;;;;20.59;90.77;;;;;
2023/08/06 02:45:44;;;;;;;15.4;11.9;;;;;;;20.63;90.5;;;;;
2023/08/06 02:56:44;;;;;;;15.4;11.9;;;;;;;20.59;90.31;;;;;
2023/08/06 03:07:44;;;;;;;15.4;11.9;;;;;;;20.48;90.69;;;;;
2023/08/06 03:18:44;;;;;;;14.5;10.3;;;;;;;20.58;90.05;;;;;
2023/08/06 03:28:44;;;;;;;14.5;10.3;;;;;;;20.56;90.16;;;;;
2023/08/06 03:38:44;;;;;;;14.5;10.3;;;;;;;20.57;90.33;;;;;
2023/08/06 03:49:44;;;;;;;18;13.4;;;;;;;20.53;90.75;;;;;
2023/08/06 03:59:44;;;;;;;18;13.4;;;;;;;20.52;90.75;;;;;
2023/08/06 04:09:44;;;;;;;18;13.4;;;;;;;20.66;90.44;;;;;
2023/08/06 04:19:44;;;;;;;24.7;19.5;;;;;;;20.62;90.5;;;;;
2023/08/06 04:30:44;;;;;;;24.7;19.5;;;;;;;20.63;90.56;;;;;
2023/08/06 04:40:44;;;;;;;23.6;17.2;;;;;;;20.68;90.19;;;;;
2023/08/06 04:50:44;;;;;;;23.6;17.2;;;;;;;20.56;90.52;;;;;
2023/08/06 05:00:44;;;;;;;23.6;17.2;;;;;;;20.51;90.83;;;;;
2023/08/06 05:11:44;;;;;;;18.6;12.1;;;;;;;20.61;90.66;;;;;
2023/08/06 05:21:44;;;;;;;18.6;12.1;;;;;;;20.52;91.02;;;;;
2023/08/06 05:31:44;;;;;;;18.6;12.1;;;;;;;20.82;90.92;;;;;
2023/08/06 05:42:44;;;;;;;13.2;9.7;;;;;;;20.82;90.54;;;;;
2023/08/06 05:52:44;;;;;;;13.2;9.7;;;;;;;20.84;90.66;;;;;
2023/08/06 06:02:44;;;;;;;13.2;9.7;;;;;;;21.15;89.95;;;;;
2023/08/06 06:12:44;;;;;;;14.7;9.2;;;;;;;21.07;89.73;;;;;
2023/08/06 06:23:44;;;;;;;14.7;9.2;;;;;;;21.16;88.79;;;;;
2023/08/06 06:33:44;;;;;;;14.7;9.2;;;;;;;20.91;89.48;;;;;
2023/08/06 06:43:44;;;;;;;9.3;6.4;;;;;;;21.06;89.31;;;;;
2023/08/06 06:54:44;;;;;;;9.3;6.4;;;;;;;20.97;88.44;;;;;
2023/08/06 07:04:44;;;;;;;9.3;6.4;;;;;;;20.68;88.9;;;;;
2023/08/06 07:14:44;;;;;;;4.6;2.9;;;;;;;20.31;89.07;;;;;
2023/08/06 07:24:44;;;;;;;4.6;2.9;;;;;;;19.37;89.9;;;;;
2023/08/06 07:35:44;;;;;;;4.6;2.9;;;;;;;19.24;89.67;;;;;
2023/08/06 07:45:44;;;;;;;3.5;1.5;;;;;;;19.14;89.08;;;;;
2023/08/06 07:55:44;;;;;;;3.5;1.5;;;;;;;18.92;88.81;;;;;
2023/08/06 08:06:44;;;;;;;3.5;1.5;;;;;;;18.76;87.46;;;;;
2023/08/06 08:16:44;;;;;;;3.1;1.4;;;;;;;18.3;88.04;;;;;
2023/08/06 08:27:44;;;;;;;3.1;1.4;;;;;;;18.36;88.35;;;;;
2023/08/06 08:37:44;;;;;;;3.1;1.4;;;;;;;18.21;88.66;;;;;
2023/08/06 08:48:44;;;;;;;1.9;0.8;;;;;;;18.32;87.88;;;;;
2023/08/06 08:59:44;;;;;;;1.9;0.8;;;;;;;18.2;87.87;;;;;
2023/08/06 09:09:44;;;;;;;1.9;0.8;;;;;;;18.39;87.76;;;;;
2023/08/06 09:20:44;;;;;;;1.2;0.6;;;;;;;18.4;87.46;;;;;
2023/08/06 09:30:44;;;;;;;1.2;0.6;;;;;;;18.39;87.38;;;;;
2023/08/06 09:41:44;;;;;;;2;1.1;;;;;;;18.13;86.83;;;;;
2023/08/06 09:51:44;;;;;;;2;1.1;;;;;;;17.85;87.45;;;;;
2023/08/06 10:01:44;;;;;;;2;1.1;;;;;;;18.11;86.82;;;;;
2023/08/06 10:12:44;;;;;;;1.7;0.7;;;;;;;17.92;87.43;;;;;
2023/08/06 10:23:44;;;;;;;1.7;0.7;;;;;;;17.58;87.93;;;;;
2023/08/06 10:34:44;;;;;;;1.7;0.7;;;;;;;17.54;87.9;;;;;
2023/08/06 10:44:44;;;;;;;2;0.8;;;;;;;17.37;87.84;;;;;
2023/08/06 10:55:44;;;;;;;2;0.8;;;;;;;17.48;88.66;;;;;
2023/08/06 11:05:44;;;;;;;2;0.8;;;;;;;17.29;88.08;;;;;
2023/08/06 11:16:44;;;;;;;1.9;0.8;;;;;;;17.15;88.68;;;;;
2023/08/06 11:26:44;;;;;;;1.9;0.8;;;;;;;17.3;88.43;;;;;
2023/08/06 11:37:44;;;;;;;1.9;0.8;;;;;;;17.19;88.18;;;;;
2023/08/06 11:48:44;;;;;;;1.4;0.6;;;;;;;16.98;87.68;;;;;
2023/08/06 11:58:44;;;;;;;1.4;0.6;;;;;;;16.92;88.21;;;;;
2023/08/06 12:08:44;;;;;;;1.4;0.6;;;;;;;16.64;88.63;;;;;
2023/08/06 12:18:44;;;;;;;1.2;0.5;;;;;;;16.44;88.54;;;;;
2023/08/06 12:29:44;;;;;;;1.2;0.5;;;;;;;16.52;89.53;;;;;
2023/08/06 12:39:44;;;;;;;1.2;0.5;;;;;;;16.76;88.76;;;;;
2023/08/06 12:50:44;;;;;;;2.8;1.7;;;;;;;16.8;88.65;;;;;
2023/08/06 13:00:45;;;;;;;2.8;1.7;;;;;;;16.44;88.58;;;;;
2023/08/06 13:11:46;;;;;;;2.7;1.3;;;;;;;16.6;88.78;;;;;
2023/08/06 13:22:46;;;;;;;2.7;1.3;;;;;;;16.66;88.5;;;;;
2023/08/06 13:32:44;;;;;;;2.7;1.3;;;;;;;16.52;88.87;;;;;
2023/08/06 13:43:44;;;;;;;1.8;0.7;;;;;;;16.37;88.79;;;;;
2023/08/06 13:53:44;;;;;;;1.8;0.7;;;;;;;16.46;89.07;;;;;
2023/08/06 14:04:44;;;;;;;1.8;0.7;;;;;;;16.35;89.89;;;;;
2023/08/06 14:15:46;;;;;;;4.2;2;;;;;;;16.59;89.41;;;;;
2023/08/06 14:26:44;;;;;;;4.2;2;;;;;;;17.15;88.29;;;;;
2023/08/06 14:36:44;;;;;;;4.2;2;;;;;;;17.68;85.36;;;;;
2023/08/06 14:47:44;;;;;;;2.6;1.2;;;;;;;17.72;84.4;;;;;
2023/08/06 14:57:44;;;;;;;2.6;1.2;;;;;;;17.86;84.92;;;;;
2023/08/06 15:08:46;;;;;;;2.6;1.2;;;;;;;18.05;83.81;;;;;
2023/08/06 15:19:44;;;;;;;2.6;0.9;;;;;;;18.04;83.59;;;;;
2023/08/06 15:29:44;;;;;;;2.6;0.9;;;;;;;17.84;84.15;;;;;
2023/08/06 15:40:45;;;;;;;2.6;0.9;;;;;;;17.91;84.69;;;;;
2023/08/06 15:51:44;;;;;;;1.5;0.6;;;;;;;17.8;84.12;;;;;
2023/08/06 16:02:44;;;;;;;1.5;0.6;;;;;;;17.54;84;;;;;
2023/08/06 16:12:44;;;;;;;2.8;1.3;;;;;;;17.39;84.99;;;;;
2023/08/06 16:23:44;;;;;;;2.8;1.3;;;;;;;17.18;85.65;;;;;
2023/08/06 16:33:44;;;;;;;2.8;1.3;;;;;;;17.06;86.2;;;;;
2023/08/06 16:43:44;;;;;;;2;0.7;;;;;;;16.68;86.81;;;;;
2023/08/06 16:54:44;;;;;;;2;0.7;;;;;;;16.55;86.71;;;;;
2023/08/06 17:04:44;;;;;;;2;0.7;;;;;;;16.47;86.63;;;;;
2023/08/06 17:14:44;;;;;;;2;0.8;;;;;;;16.27;86.88;;;;;
2023/08/06 17:25:44;;;;;;;2;0.8;;;;;;;16.08;87.42;;;;;
2023/08/06 17:36:44;;;;;;;2;0.8;;;;;;;15.98;87.1;;;;;
2023/08/06 17:47:44;;;;;;;2.9;1.2;;;;;;;15.95;86.99;;;;;
2023/08/06 17:57:44;;;;;;;2.9;1.2;;;;;;;15.86;87.15;;;;;
2023/08/06 18:08:44;;;;;;;2.9;1.2;;;;;;;15.69;87.55;;;;;
2023/08/06 18:19:44;;;;;;;3.9;1.8;;;;;;;15.64;87.84;;;;;
2023/08/06 18:29:44;;;;;;;3.9;1.8;;;;;;;15.58;87.69;;;;;
2023/08/06 18:39:44;;;;;;;3.9;1.8;;;;;;;15.46;87.84;;;;;
2023/08/06 18:50:44;;;;;;;6.1;2.3;;;;;;;15.31;87.51;;;;;
2023/08/06 19:00:44;;;;;;;6.1;2.3;;;;;;;15.33;87.11;;;;;
2023/08/06 19:10:44;;;;;;;6.1;2.3;;;;;;;15.23;86.63;;;;;
2023/08/06 19:21:47;;;;;;;3.7;1.2;;;;;;;15.23;86.51;;;;;
2023/08/06 19:32:44;;;;;;;3.7;1.2;;;;;;;15.09;87.05;;;;;
2023/08/06 19:43:45;;;;;;;5.6;2.9;;;;;;;15.14;86.8;;;;;
2023/08/06 19:53:44;;;;;;;5.6;2.9;;;;;;;15.14;86.96;;;;;
2023/08/06 20:03:44;;;;;;;5.6;2.9;;;;;;;15.07;87.23;;;;;
2023/08/06 20:14:44;;;;;;;2.2;0.7;;;;;;;14.97;87.46;;;;;
2023/08/06 20:24:44;;;;;;;2.2;0.7;;;;;;;14.81;87.55;;;;;
2023/08/06 20:34:44;;;;;;;2.2;0.7;;;;;;;14.64;87.53;;;;;
2023/08/06 20:45:44;;;;;;;7.9;3.9;;;;;;;14.53;87.97;;;;;
2023/08/06 20:55:44;;;;;;;7.9;3.9;;;;;;;14.42;88.59;;;;;
2023/08/06 21:06:44;;;;;;;7.9;3.9;;;;;;;14.43;89.14;;;;;
2023/08/06 21:16:44;;;;;;;3.6;1.7;;;;;;;14.56;90.14;;;;;
2023/08/06 21:27:47;;;;;;;3.6;1.7;;;;;;;14.68;90.5;;;;;
2023/08/06 21:38:44;;;;;;;3.6;1.7;;;;;;;14.88;90.22;;;;;
2023/08/06 21:48:44;;;;;;;3;1.1;;;;;;;14.91;90.1;;;;;
2023/08/06 21:59:44;;;;;;;3;1.1;;;;;;;14.98;89.31;;;;;
2023/08/06 22:09:45;;;;;;;3;1.1;;;;;;;14.8;89.33;;;;;
2023/08/06 22:19:44;;;;;;;3.2;1.4;;;;;;;14.75;89.35;;;;;
2023/08/06 22:30:44;;;;;;;3.2;1.4;;;;;;;14.8;89.18;;;;;
2023/08/06 22:40:45;;;;;;;3.2;1.4;;;;;;;14.9;89.14;;;;;
2023/08/06 22:51:44;;;;;;;4.7;1.5;;;;;;;14.89;89.27;;;;;
2023/08/06 23:02:44;;;;;;;4.7;1.5;;;;;;;14.87;88.99;;;;;
2023/08/06 23:12:44;;;;;;;5;2.1;;;;;;;14.94;88.66;;;;;
2023/08/06 23:23:44;;;;;;;5;2.1;;;;;;;14.95;88.13;;;;;
2023/08/06 23:34:44;;;;;;;5;2.1;;;;;;;14.95;88;;;;;
2023/08/06 23:44:44;;;;;;;5.6;1.7;;;;;;;15.02;87.81;;;;;
2023/08/06 23:55:44;;;;;;;5.6;1.7;;;;;;;14.9;88.27;;;;;
